Colt, AR (72326)

11:48 PM CDT on May 27, 2015 (GMT -0500)
marianna,arrkansas | | Change Station
CLOSE
Current Station
Personal Weather Station
Location: Marianna, AR
Elevation: 230 ft
Nearby Weather Stations

Elev 230 ft 34.77 °N, 90.77 °W | Updated 8 minutes ago

Partly Cloudy
Partly Cloudy
67.5 °F
Feels Like 67.5 °F
N
0.0
Wind Variable Wind from SSE

Today
High -- | Low -- °F
--% Chance of Precip.
Yesterday
High -- | Low -- °F
Precip. -- in
5:52 AM 8:08 PM
Waxing Gibbous, 73% visible
Pressure 30.10 in
Visibility 10.0 miles
Clouds Clear
Dew Point 66 °F
Humidity 94%
Rainfall 0.02 in
Snow Depth Not available.
UV 0 out of 12
Pollen 6.60 out of 12
Air Quality Not available.
Flu Activity No Activity
METAR KAWM 280353Z AUTO 00000KT 10SM CLR 20/20 A3011 RMK AO2 SLP193 T02000200

More Conditions Fewer Conditions

Pressure 30.10 in
Visibility 10.0 miles
Clouds Clear
Dew Point 66 °F
Humidity 94%
Rainfall 0.02 in
Snow Depth Not available.
UV 0 out of 12
Pollen 6.60 out of 12
Air Quality Not available.
Flu Activity No Activity
METAR KAWM 280353Z AUTO 00000KT 10SM CLR 20/20 A3011 RMK AO2 SLP193 T02000200

More Conditions Fewer Conditions

10-Day Weather Forecast

Almanac

Astronomy

May. 27, 2015 Rise Set
Actual Time
Civil Twilight
Nautical Twilight
Astronomical Twilight
Moon
Length of Visible Light
Length of Day
Tomorrow will be .
, % of the Moon is Illuminated

Today's Extremes

State Highs State Lows

Community

WunderPhotos

Upload Photos

1,824,921 photos uploaded!

WunderBlogs® & News

Nearby

Air Quality

  Air Quality AQ Index Pollutant
Not available.

Snow Depth

Station Depth Elevation

Earthquake Activity

City Distance Mag. Time & Date
Minimum magnitude displayed is 2.5.

Coastal Water Temperatures

Place Temperature

Stations

Nearby Weather Stations

Station Location Temp. Windchill Dew Point Humidity Wind Precip. Elev Updated Type